sensor_id;sensor_type;location;lat;lon;timestamp;P1;durP1;ratioP1;P2;durP2;ratioP2
77430;SDS011;66498;48.564;19.272;2024-03-02T00:02:12;37.08;;;25.70;;
77430;SDS011;66498;48.564;19.272;2024-03-02T00:04:38;25.92;;;18.98;;
77430;SDS011;66498;48.564;19.272;2024-03-02T00:07:03;23.17;;;17.35;;
77430;SDS011;66498;48.564;19.272;2024-03-02T00:09:29;29.10;;;21.33;;
77430;SDS011;66498;48.564;19.272;2024-03-02T00:11:55;27.80;;;21.25;;
77430;SDS011;66498;48.564;19.272;2024-03-02T00:14:20;29.95;;;21.25;;
77430;SDS011;66498;48.564;19.272;2024-03-02T00:16:46;29.50;;;20.52;;
77430;SDS011;66498;48.564;19.272;2024-03-02T00:19:11;24.08;;;19.17;;
77430;SDS011;66498;48.564;19.272;2024-03-02T00:21:37;23.80;;;19.45;;
77430;SDS011;66498;48.564;19.272;2024-03-02T00:24:07;26.35;;;18.20;;
77430;SDS011;66498;48.564;19.272;2024-03-02T00:26:44;25.85;;;18.17;;
77430;SDS011;66498;48.564;19.272;2024-03-02T00:29:10;25.42;;;18.70;;
77430;SDS011;66498;48.564;19.272;2024-03-02T00:31:41;24.92;;;18.33;;
77430;SDS011;66498;48.564;19.272;2024-03-02T00:34:06;27.00;;;18.23;;
77430;SDS011;66498;48.564;19.272;2024-03-02T00:36:32;25.70;;;17.63;;
77430;SDS011;66498;48.564;19.272;2024-03-02T00:38:58;23.83;;;18.20;;
77430;SDS011;66498;48.564;19.272;2024-03-02T00:43:54;25.10;;;18.40;;
77430;SDS011;66498;48.564;19.272;2024-03-02T00:46:22;27.33;;;19.35;;
77430;SDS011;66498;48.564;19.272;2024-03-02T00:48:55;29.15;;;20.13;;
77430;SDS011;66498;48.564;19.272;2024-03-02T00:51:23;27.10;;;20.58;;
77430;SDS011;66498;48.564;19.272;2024-03-02T00:53:50;27.08;;;20.45;;
77430;SDS011;66498;48.564;19.272;2024-03-02T00:56:17;26.52;;;19.35;;
77430;SDS011;66498;48.564;19.272;2024-03-02T00:58:43;28.10;;;18.98;;
77430;SDS011;66498;48.564;19.272;2024-03-02T01:01:09;24.52;;;18.80;;
77430;SDS011;66498;48.564;19.272;2024-03-02T01:03:34;27.63;;;19.45;;
77430;SDS011;66498;48.564;19.272;2024-03-02T01:06:00;25.60;;;18.40;;
77430;SDS011;66498;48.564;19.272;2024-03-02T01:08:27;25.77;;;18.45;;
77430;SDS011;66498;48.564;19.272;2024-03-02T01:10:52;24.25;;;17.92;;
77430;SDS011;66498;48.564;19.272;2024-03-02T01:13:18;25.15;;;17.73;;
77430;SDS011;66498;48.564;19.272;2024-03-02T01:15:43;27.65;;;19.60;;
77430;SDS011;66498;48.564;19.272;2024-03-02T01:18:08;27.60;;;18.48;;
77430;SDS011;66498;48.564;19.272;2024-03-02T01:20:34;24.13;;;16.58;;
77430;SDS011;66498;48.564;19.272;2024-03-02T01:22:59;21.98;;;17.15;;
77430;SDS011;66498;48.564;19.272;2024-03-02T01:25:25;21.23;;;15.88;;
77430;SDS011;66498;48.564;19.272;2024-03-02T01:27:50;23.20;;;15.60;;
77430;SDS011;66498;48.564;19.272;2024-03-02T01:30:16;24.15;;;16.10;;
77430;SDS011;66498;48.564;19.272;2024-03-02T01:32:41;20.40;;;15.77;;
77430;SDS011;66498;48.564;19.272;2024-03-02T01:35:07;23.55;;;16.65;;
77430;SDS011;66498;48.564;19.272;2024-03-02T01:37:32;21.52;;;16.42;;
77430;SDS011;66498;48.564;19.272;2024-03-02T01:39:58;20.05;;;15.60;;
77430;SDS011;66498;48.564;19.272;2024-03-02T01:42:24;22.05;;;16.70;;
77430;SDS011;66498;48.564;19.272;2024-03-02T01:44:51;21.83;;;15.85;;
77430;SDS011;66498;48.564;19.272;2024-03-02T01:47:16;20.27;;;15.45;;
77430;SDS011;66498;48.564;19.272;2024-03-02T01:49:42;20.70;;;15.10;;
77430;SDS011;66498;48.564;19.272;2024-03-02T01:52:07;19.60;;;14.43;;
77430;SDS011;66498;48.564;19.272;2024-03-02T01:54:33;19.98;;;14.80;;
77430;SDS011;66498;48.564;19.272;2024-03-02T01:56:59;21.30;;;16.55;;
77430;SDS011;66498;48.564;19.272;2024-03-02T01:59:25;20.58;;;15.52;;
77430;SDS011;66498;48.564;19.272;2024-03-02T02:01:50;21.15;;;16.13;;
77430;SDS011;66498;48.564;19.272;2024-03-02T02:04:16;20.98;;;15.55;;
77430;SDS011;66498;48.564;19.272;2024-03-02T02:06:43;21.58;;;15.65;;
77430;SDS011;66498;48.564;19.272;2024-03-02T02:09:10;20.98;;;15.90;;
77430;SDS011;66498;48.564;19.272;2024-03-02T02:11:35;24.30;;;16.75;;
77430;SDS011;66498;48.564;19.272;2024-03-02T02:14:01;23.42;;;16.52;;
77430;SDS011;66498;48.564;19.272;2024-03-02T02:16:26;24.73;;;17.08;;
77430;SDS011;66498;48.564;19.272;2024-03-02T02:18:51;25.77;;;17.27;;
77430;SDS011;66498;48.564;19.272;2024-03-02T02:21:17;24.23;;;17.73;;
77430;SDS011;66498;48.564;19.272;2024-03-02T02:23:42;24.83;;;17.92;;
77430;SDS011;66498;48.564;19.272;2024-03-02T02:26:11;24.92;;;17.23;;
77430;SDS011;66498;48.564;19.272;2024-03-02T02:28:37;22.25;;;16.38;;
77430;SDS011;66498;48.564;19.272;2024-03-02T02:31:02;21.67;;;15.57;;
77430;SDS011;66498;48.564;19.272;2024-03-02T02:33:28;24.35;;;16.30;;
77430;SDS011;66498;48.564;19.272;2024-03-02T02:35:54;22.38;;;16.90;;
77430;SDS011;66498;48.564;19.272;2024-03-02T02:38:19;24.65;;;15.88;;
77430;SDS011;66498;48.564;19.272;2024-03-02T02:40:45;22.60;;;16.55;;
77430;SDS011;66498;48.564;19.272;2024-03-02T02:43:10;19.42;;;15.48;;
77430;SDS011;66498;48.564;19.272;2024-03-02T02:45:36;21.58;;;15.90;;
77430;SDS011;66498;48.564;19.272;2024-03-02T02:48:01;19.92;;;15.45;;
77430;SDS011;66498;48.564;19.272;2024-03-02T02:50:27;24.08;;;17.17;;
77430;SDS011;66498;48.564;19.272;2024-03-02T02:52:53;25.70;;;17.55;;
77430;SDS011;66498;48.564;19.272;2024-03-02T02:55:18;30.17;;;22.67;;
77430;SDS011;66498;48.564;19.272;2024-03-02T02:57:44;34.05;;;23.50;;
77430;SDS011;66498;48.564;19.272;2024-03-02T03:00:11;34.35;;;23.10;;
77430;SDS011;66498;48.564;19.272;2024-03-02T03:02:43;33.92;;;22.83;;
77430;SDS011;66498;48.564;19.272;2024-03-02T03:05:09;35.42;;;23.60;;
77430;SDS011;66498;48.564;19.272;2024-03-02T03:07:36;30.95;;;21.67;;
77430;SDS011;66498;48.564;19.272;2024-03-02T03:10:02;28.67;;;20.42;;
77430;SDS011;66498;48.564;19.272;2024-03-02T03:12:29;28.23;;;20.60;;
77430;SDS011;66498;48.564;19.272;2024-03-02T03:14:56;24.85;;;18.05;;
77430;SDS011;66498;48.564;19.272;2024-03-02T03:17:22;25.83;;;18.52;;
77430;SDS011;66498;48.564;19.272;2024-03-02T03:19:48;25.95;;;19.20;;
77430;SDS011;66498;48.564;19.272;2024-03-02T03:22:14;23.35;;;18.33;;
77430;SDS011;66498;48.564;19.272;2024-03-02T03:24:40;24.60;;;18.52;;
77430;SDS011;66498;48.564;19.272;2024-03-02T03:27:06;25.25;;;18.95;;
77430;SDS011;66498;48.564;19.272;2024-03-02T03:29:31;28.70;;;20.42;;
77430;SDS011;66498;48.564;19.272;2024-03-02T03:31:57;31.65;;;21.88;;
77430;SDS011;66498;48.564;19.272;2024-03-02T03:34:22;31.45;;;20.30;;
77430;SDS011;66498;48.564;19.272;2024-03-02T03:36:48;29.35;;;19.80;;
77430;SDS011;66498;48.564;19.272;2024-03-02T03:39:14;26.67;;;19.60;;
77430;SDS011;66498;48.564;19.272;2024-03-02T03:41:42;26.50;;;20.00;;
77430;SDS011;66498;48.564;19.272;2024-03-02T03:44:08;25.73;;;19.65;;
77430;SDS011;66498;48.564;19.272;2024-03-02T03:46:33;25.33;;;18.60;;
77430;SDS011;66498;48.564;19.272;2024-03-02T03:48:58;26.50;;;19.05;;
77430;SDS011;66498;48.564;19.272;2024-03-02T03:51:24;28.15;;;19.15;;
77430;SDS011;66498;48.564;19.272;2024-03-02T03:53:49;30.73;;;20.73;;
77430;SDS011;66498;48.564;19.272;2024-03-02T03:56:14;27.63;;;20.40;;
77430;SDS011;66498;48.564;19.272;2024-03-02T03:58:40;26.35;;;19.95;;
77430;SDS011;66498;48.564;19.272;2024-03-02T04:01:05;28.55;;;20.27;;
77430;SDS011;66498;48.564;19.272;2024-03-02T04:03:31;27.95;;;20.33;;
77430;SDS011;66498;48.564;19.272;2024-03-02T04:05:56;27.65;;;20.23;;
77430;SDS011;66498;48.564;19.272;2024-03-02T04:08:21;28.35;;;20.52;;
77430;SDS011;66498;48.564;19.272;2024-03-02T04:10:47;24.73;;;19.42;;
77430;SDS011;66498;48.564;19.272;2024-03-02T04:13:12;25.95;;;20.50;;
77430;SDS011;66498;48.564;19.272;2024-03-02T04:15:38;27.67;;;20.27;;
77430;SDS011;66498;48.564;19.272;2024-03-02T04:18:05;30.45;;;20.20;;
77430;SDS011;66498;48.564;19.272;2024-03-02T04:20:31;27.00;;;20.55;;
77430;SDS011;66498;48.564;19.272;2024-03-02T04:22:56;25.73;;;19.77;;
77430;SDS011;66498;48.564;19.272;2024-03-02T04:25:22;27.85;;;19.60;;
77430;SDS011;66498;48.564;19.272;2024-03-02T04:27:47;26.63;;;20.80;;
77430;SDS011;66498;48.564;19.272;2024-03-02T04:30:12;27.65;;;19.67;;
77430;SDS011;66498;48.564;19.272;2024-03-02T04:32:38;26.95;;;20.02;;
77430;SDS011;66498;48.564;19.272;2024-03-02T04:35:04;26.02;;;18.85;;
77430;SDS011;66498;48.564;19.272;2024-03-02T04:37:31;25.60;;;19.42;;
77430;SDS011;66498;48.564;19.272;2024-03-02T04:40:00;28.05;;;19.50;;
77430;SDS011;66498;48.564;19.272;2024-03-02T04:42:25;23.95;;;18.65;;
77430;SDS011;66498;48.564;19.272;2024-03-02T04:44:51;25.65;;;18.55;;
77430;SDS011;66498;48.564;19.272;2024-03-02T04:47:16;25.20;;;18.33;;
77430;SDS011;66498;48.564;19.272;2024-03-02T04:49:42;27.30;;;18.35;;
77430;SDS011;66498;48.564;19.272;2024-03-02T04:52:08;24.40;;;17.90;;
77430;SDS011;66498;48.564;19.272;2024-03-02T04:54:33;21.20;;;16.75;;
77430;SDS011;66498;48.564;19.272;2024-03-02T04:57:19;21.77;;;17.02;;
77430;SDS011;66498;48.564;19.272;2024-03-02T04:59:44;24.73;;;17.85;;
77430;SDS011;66498;48.564;19.272;2024-03-02T05:02:10;24.73;;;18.10;;
77430;SDS011;66498;48.564;19.272;2024-03-02T05:04:35;24.35;;;17.60;;
77430;SDS011;66498;48.564;19.272;2024-03-02T05:07:00;25.63;;;18.05;;
77430;SDS011;66498;48.564;19.272;2024-03-02T05:09:26;21.63;;;16.88;;
77430;SDS011;66498;48.564;19.272;2024-03-02T05:11:51;21.40;;;17.15;;
77430;SDS011;66498;48.564;19.272;2024-03-02T05:14:36;24.05;;;17.90;;
77430;SDS011;66498;48.564;19.272;2024-03-02T05:17:02;25.23;;;17.88;;
77430;SDS011;66498;48.564;19.272;2024-03-02T05:19:27;24.17;;;17.73;;
77430;SDS011;66498;48.564;19.272;2024-03-02T05:21:52;24.58;;;18.35;;
77430;SDS011;66498;48.564;19.272;2024-03-02T05:24:18;27.45;;;18.35;;
77430;SDS011;66498;48.564;19.272;2024-03-02T05:26:44;24.75;;;17.85;;
77430;SDS011;66498;48.564;19.272;2024-03-02T05:29:10;24.35;;;17.25;;
77430;SDS011;66498;48.564;19.272;2024-03-02T05:31:36;24.20;;;17.45;;
77430;SDS011;66498;48.564;19.272;2024-03-02T05:34:01;25.05;;;18.10;;
77430;SDS011;66498;48.564;19.272;2024-03-02T05:36:27;23.33;;;17.13;;
77430;SDS011;66498;48.564;19.272;2024-03-02T05:38:53;21.88;;;16.58;;
77430;SDS011;66498;48.564;19.272;2024-03-02T05:41:18;24.05;;;17.13;;
77430;SDS011;66498;48.564;19.272;2024-03-02T05:43:43;25.80;;;16.77;;
77430;SDS011;66498;48.564;19.272;2024-03-02T05:46:09;23.88;;;17.10;;
77430;SDS011;66498;48.564;19.272;2024-03-02T05:48:34;26.25;;;17.38;;
77430;SDS011;66498;48.564;19.272;2024-03-02T05:50:59;26.75;;;17.42;;
77430;SDS011;66498;48.564;19.272;2024-03-02T05:53:25;24.60;;;16.95;;
77430;SDS011;66498;48.564;19.272;2024-03-02T05:55:50;25.55;;;17.17;;
77430;SDS011;66498;48.564;19.272;2024-03-02T05:58:20;27.25;;;18.08;;
77430;SDS011;66498;48.564;19.272;2024-03-02T06:00:57;24.92;;;17.40;;
77430;SDS011;66498;48.564;19.272;2024-03-02T06:03:23;25.40;;;18.60;;
77430;SDS011;66498;48.564;19.272;2024-03-02T06:05:48;27.17;;;17.48;;
77430;SDS011;66498;48.564;19.272;2024-03-02T06:08:14;25.52;;;17.88;;
77430;SDS011;66498;48.564;19.272;2024-03-02T06:10:39;24.85;;;17.90;;
77430;SDS011;66498;48.564;19.272;2024-03-02T06:13:05;24.17;;;17.63;;
77430;SDS011;66498;48.564;19.272;2024-03-02T06:15:30;24.17;;;17.50;;
77430;SDS011;66498;48.564;19.272;2024-03-02T06:17:56;25.08;;;17.88;;
77430;SDS011;66498;48.564;19.272;2024-03-02T06:20:21;27.35;;;19.23;;
77430;SDS011;66498;48.564;19.272;2024-03-02T06:22:47;24.23;;;18.25;;
77430;SDS011;66498;48.564;19.272;2024-03-02T06:25:12;26.30;;;18.10;;
77430;SDS011;66498;48.564;19.272;2024-03-02T06:27:38;27.15;;;18.83;;
77430;SDS011;66498;48.564;19.272;2024-03-02T06:30:04;25.30;;;19.33;;
77430;SDS011;66498;48.564;19.272;2024-03-02T06:32:29;26.35;;;19.60;;
77430;SDS011;66498;48.564;19.272;2024-03-02T06:34:55;26.67;;;20.05;;
77430;SDS011;66498;48.564;19.272;2024-03-02T06:37:20;26.67;;;19.55;;
77430;SDS011;66498;48.564;19.272;2024-03-02T06:39:45;27.85;;;19.65;;
77430;SDS011;66498;48.564;19.272;2024-03-02T06:42:11;28.10;;;19.92;;
77430;SDS011;66498;48.564;19.272;2024-03-02T06:44:36;26.33;;;20.17;;
77430;SDS011;66498;48.564;19.272;2024-03-02T06:47:02;33.83;;;22.00;;
77430;SDS011;66498;48.564;19.272;2024-03-02T06:49:27;27.98;;;20.48;;
77430;SDS011;66498;48.564;19.272;2024-03-02T06:51:52;27.27;;;20.83;;
77430;SDS011;66498;48.564;19.272;2024-03-02T06:54:18;70.82;;;39.15;;
77430;SDS011;66498;48.564;19.272;2024-03-02T06:56:43;90.28;;;47.17;;
77430;SDS011;66498;48.564;19.272;2024-03-02T06:59:09;71.10;;;38.13;;
77430;SDS011;66498;48.564;19.272;2024-03-02T07:01:34;37.55;;;25.58;;
77430;SDS011;66498;48.564;19.272;2024-03-02T07:03:59;34.92;;;24.25;;
77430;SDS011;66498;48.564;19.272;2024-03-02T07:06:25;28.95;;;21.48;;
77430;SDS011;66498;48.564;19.272;2024-03-02T07:08:50;36.55;;;25.88;;
77430;SDS011;66498;48.564;19.272;2024-03-02T07:11:15;51.25;;;33.97;;
77430;SDS011;66498;48.564;19.272;2024-03-02T07:13:41;29.70;;;21.95;;
77430;SDS011;66498;48.564;19.272;2024-03-02T07:16:06;31.52;;;23.67;;
77430;SDS011;66498;48.564;19.272;2024-03-02T07:18:52;38.60;;;27.88;;
77430;SDS011;66498;48.564;19.272;2024-03-02T07:21:20;31.80;;;23.10;;
77430;SDS011;66498;48.564;19.272;2024-03-02T07:23:47;33.05;;;24.63;;
77430;SDS011;66498;48.564;19.272;2024-03-02T07:26:12;35.25;;;27.48;;
77430;SDS011;66498;48.564;19.272;2024-03-02T07:28:38;34.45;;;25.13;;
77430;SDS011;66498;48.564;19.272;2024-03-02T07:31:04;33.47;;;25.20;;
77430;SDS011;66498;48.564;19.272;2024-03-02T07:33:30;37.80;;;26.05;;
77430;SDS011;66498;48.564;19.272;2024-03-02T07:35:56;34.63;;;25.52;;
77430;SDS011;66498;48.564;19.272;2024-03-02T07:38:22;34.85;;;24.85;;
77430;SDS011;66498;48.564;19.272;2024-03-02T07:40:48;35.22;;;25.35;;
77430;SDS011;66498;48.564;19.272;2024-03-02T07:43:18;35.28;;;24.45;;
77430;SDS011;66498;48.564;19.272;2024-03-02T07:45:47;34.00;;;24.70;;
77430;SDS011;66498;48.564;19.272;2024-03-02T07:48:13;36.38;;;26.33;;
77430;SDS011;66498;48.564;19.272;2024-03-02T07:50:38;36.28;;;26.02;;
77430;SDS011;66498;48.564;19.272;2024-03-02T07:53:04;34.05;;;24.90;;
77430;SDS011;66498;48.564;19.272;2024-03-02T07:55:30;35.45;;;25.88;;
77430;SDS011;66498;48.564;19.272;2024-03-02T07:57:59;34.50;;;24.65;;
77430;SDS011;66498;48.564;19.272;2024-03-02T08:00:25;35.85;;;26.50;;
77430;SDS011;66498;48.564;19.272;2024-03-02T08:02:51;35.72;;;26.13;;
77430;SDS011;66498;48.564;19.272;2024-03-02T08:05:17;37.65;;;27.60;;
77430;SDS011;66498;48.564;19.272;2024-03-02T08:07:46;36.38;;;25.58;;
77430;SDS011;66498;48.564;19.272;2024-03-02T08:10:12;38.80;;;26.77;;
77430;SDS011;66498;48.564;19.272;2024-03-02T08:12:39;39.20;;;27.42;;
77430;SDS011;66498;48.564;19.272;2024-03-02T08:15:04;37.13;;;27.55;;
77430;SDS011;66498;48.564;19.272;2024-03-02T08:17:32;40.97;;;26.98;;
77430;SDS011;66498;48.564;19.272;2024-03-02T08:19:57;37.53;;;27.52;;
77430;SDS011;66498;48.564;19.272;2024-03-02T08:22:23;39.67;;;27.27;;
77430;SDS011;66498;48.564;19.272;2024-03-02T08:24:52;40.28;;;28.02;;
77430;SDS011;66498;48.564;19.272;2024-03-02T08:27:18;37.15;;;26.42;;
77430;SDS011;66498;48.564;19.272;2024-03-02T08:29:43;38.15;;;26.98;;
77430;SDS011;66498;48.564;19.272;2024-03-02T08:32:08;39.33;;;28.83;;
77430;SDS011;66498;48.564;19.272;2024-03-02T08:34:34;40.05;;;28.58;;
77430;SDS011;66498;48.564;19.272;2024-03-02T08:37:01;37.30;;;28.35;;
77430;SDS011;66498;48.564;19.272;2024-03-02T08:39:27;41.95;;;28.85;;
77430;SDS011;66498;48.564;19.272;2024-03-02T08:41:53;39.40;;;27.42;;
77430;SDS011;66498;48.564;19.272;2024-03-02T08:44:19;41.55;;;28.58;;
77430;SDS011;66498;48.564;19.272;2024-03-02T08:46:44;37.60;;;27.88;;
77430;SDS011;66498;48.564;19.272;2024-03-02T08:49:10;38.58;;;27.45;;
77430;SDS011;66498;48.564;19.272;2024-03-02T08:51:35;39.75;;;27.60;;
77430;SDS011;66498;48.564;19.272;2024-03-02T08:54:01;38.90;;;27.13;;
77430;SDS011;66498;48.564;19.272;2024-03-02T08:56:28;41.03;;;27.95;;
77430;SDS011;66498;48.564;19.272;2024-03-02T08:58:55;42.33;;;27.83;;
77430;SDS011;66498;48.564;19.272;2024-03-02T09:01:23;39.08;;;28.73;;
77430;SDS011;66498;48.564;19.272;2024-03-02T09:03:56;39.33;;;28.23;;
77430;SDS011;66498;48.564;19.272;2024-03-02T09:06:46;39.05;;;27.48;;
77430;SDS011;66498;48.564;19.272;2024-03-02T09:09:11;39.20;;;27.88;;
77430;SDS011;66498;48.564;19.272;2024-03-02T09:11:40;38.17;;;26.75;;
77430;SDS011;66498;48.564;19.272;2024-03-02T09:14:07;35.35;;;26.13;;
77430;SDS011;66498;48.564;19.272;2024-03-02T09:16:36;36.65;;;26.02;;
77430;SDS011;66498;48.564;19.272;2024-03-02T09:20:06;38.47;;;28.02;;
77430;SDS011;66498;48.564;19.272;2024-03-02T09:22:39;38.33;;;27.02;;
77430;SDS011;66498;48.564;19.272;2024-03-02T09:25:39;39.42;;;27.85;;
77430;SDS011;66498;48.564;19.272;2024-03-02T09:28:30;37.30;;;27.75;;
77430;SDS011;66498;48.564;19.272;2024-03-02T09:31:40;50.83;;;36.45;;
77430;SDS011;66498;48.564;19.272;2024-03-02T09:34:09;53.17;;;36.63;;
77430;SDS011;66498;48.564;19.272;2024-03-02T09:37:13;53.95;;;38.55;;
77430;SDS011;66498;48.564;19.272;2024-03-02T09:40:38;43.40;;;32.45;;
77430;SDS011;66498;48.564;19.272;2024-03-02T09:43:36;41.58;;;28.25;;
77430;SDS011;66498;48.564;19.272;2024-03-02T09:47:08;35.83;;;25.73;;
77430;SDS011;66498;48.564;19.272;2024-03-02T09:50:11;36.50;;;24.50;;
77430;SDS011;66498;48.564;19.272;2024-03-02T09:52:42;32.75;;;25.25;;
77430;SDS011;66498;48.564;19.272;2024-03-02T09:55:12;33.88;;;25.50;;
77430;SDS011;66498;48.564;19.272;2024-03-02T09:57:41;36.92;;;25.67;;
77430;SDS011;66498;48.564;19.272;2024-03-02T10:00:18;35.30;;;25.33;;
77430;SDS011;66498;48.564;19.272;2024-03-02T10:02:45;35.35;;;25.70;;
77430;SDS011;66498;48.564;19.272;2024-03-02T10:05:26;34.65;;;25.00;;
77430;SDS011;66498;48.564;19.272;2024-03-02T10:08:04;35.80;;;24.92;;
77430;SDS011;66498;48.564;19.272;2024-03-02T10:13:32;34.25;;;24.92;;
77430;SDS011;66498;48.564;19.272;2024-03-02T10:16:27;29.48;;;22.55;;
77430;SDS011;66498;48.564;19.272;2024-03-02T10:18:57;34.20;;;23.85;;
77430;SDS011;66498;48.564;19.272;2024-03-02T10:21:31;32.95;;;23.33;;
77430;SDS011;66498;48.564;19.272;2024-03-02T10:24:06;30.15;;;22.50;;
77430;SDS011;66498;48.564;19.272;2024-03-02T10:26:40;32.92;;;24.13;;
77430;SDS011;66498;48.564;19.272;2024-03-02T10:29:10;32.22;;;23.27;;
77430;SDS011;66498;48.564;19.272;2024-03-02T10:31:45;34.45;;;23.85;;
77430;SDS011;66498;48.564;19.272;2024-03-02T10:34:15;32.45;;;24.50;;
77430;SDS011;66498;48.564;19.272;2024-03-02T10:36:42;32.70;;;24.92;;
77430;SDS011;66498;48.564;19.272;2024-03-02T10:39:42;33.60;;;24.90;;
77430;SDS011;66498;48.564;19.272;2024-03-02T10:42:11;34.88;;;24.95;;
77430;SDS011;66498;48.564;19.272;2024-03-02T10:44:42;36.20;;;24.48;;
77430;SDS011;66498;48.564;19.272;2024-03-02T10:47:17;32.08;;;23.38;;
77430;SDS011;66498;48.564;19.272;2024-03-02T10:50:19;31.00;;;23.73;;
77430;SDS011;66498;48.564;19.272;2024-03-02T10:53:35;33.20;;;24.13;;
77430;SDS011;66498;48.564;19.272;2024-03-02T10:56:07;32.60;;;24.33;;
77430;SDS011;66498;48.564;19.272;2024-03-02T11:02:49;32.03;;;24.58;;
77430;SDS011;66498;48.564;19.272;2024-03-02T11:05:27;31.35;;;23.85;;
77430;SDS011;66498;48.564;19.272;2024-03-02T11:08:11;31.93;;;24.63;;
77430;SDS011;66498;48.564;19.272;2024-03-02T11:11:19;32.22;;;24.23;;
77430;SDS011;66498;48.564;19.272;2024-03-02T11:13:56;31.58;;;24.33;;
77430;SDS011;66498;48.564;19.272;2024-03-02T11:16:44;32.83;;;25.27;;
77430;SDS011;66498;48.564;19.272;2024-03-02T11:19:25;34.35;;;23.02;;
77430;SDS011;66498;48.564;19.272;2024-03-02T11:22:06;29.60;;;22.15;;
77430;SDS011;66498;48.564;19.272;2024-03-02T11:24:58;29.92;;;22.30;;
77430;SDS011;66498;48.564;19.272;2024-03-02T11:33:06;26.35;;;19.17;;
77430;SDS011;66498;48.564;19.272;2024-03-02T11:39:21;23.23;;;18.42;;
77430;SDS011;66498;48.564;19.272;2024-03-02T11:43:01;25.60;;;19.60;;
77430;SDS011;66498;48.564;19.272;2024-03-02T11:46:15;26.38;;;19.73;;
77430;SDS011;66498;48.564;19.272;2024-03-02T11:49:43;24.92;;;18.92;;
77430;SDS011;66498;48.564;19.272;2024-03-02T11:53:22;22.95;;;18.42;;
77430;SDS011;66498;48.564;19.272;2024-03-02T11:58:50;26.13;;;19.40;;
77430;SDS011;66498;48.564;19.272;2024-03-02T12:01:56;23.70;;;18.55;;
77430;SDS011;66498;48.564;19.272;2024-03-02T12:05:12;24.83;;;19.35;;
77430;SDS011;66498;48.564;19.272;2024-03-02T12:07:42;24.85;;;19.30;;
77430;SDS011;66498;48.564;19.272;2024-03-02T12:10:36;27.38;;;20.38;;
77430;SDS011;66498;48.564;19.272;2024-03-02T12:13:36;25.90;;;19.13;;
77430;SDS011;66498;48.564;19.272;2024-03-02T12:16:39;23.90;;;18.63;;
77430;SDS011;66498;48.564;19.272;2024-03-02T12:19:58;24.50;;;19.33;;
77430;SDS011;66498;48.564;19.272;2024-03-02T12:23:06;22.50;;;18.42;;
77430;SDS011;66498;48.564;19.272;2024-03-02T12:26:54;23.52;;;18.70;;
77430;SDS011;66498;48.564;19.272;2024-03-02T12:30:37;23.55;;;18.02;;
77430;SDS011;66498;48.564;19.272;2024-03-02T12:36:38;20.92;;;17.00;;
77430;SDS011;66498;48.564;19.272;2024-03-02T12:39:04;22.48;;;17.60;;
77430;SDS011;66498;48.564;19.272;2024-03-02T12:41:29;20.75;;;16.70;;
77430;SDS011;66498;48.564;19.272;2024-03-02T12:43:55;22.15;;;17.25;;
77430;SDS011;66498;48.564;19.272;2024-03-02T12:46:21;24.27;;;18.23;;
77430;SDS011;66498;48.564;19.272;2024-03-02T12:48:46;22.52;;;17.60;;
77430;SDS011;66498;48.564;19.272;2024-03-02T12:51:12;23.52;;;18.10;;
77430;SDS011;66498;48.564;19.272;2024-03-02T12:53:37;23.48;;;17.00;;
77430;SDS011;66498;48.564;19.272;2024-03-02T12:56:03;23.33;;;17.10;;
77430;SDS011;66498;48.564;19.272;2024-03-02T12:58:29;23.17;;;18.20;;
77430;SDS011;66498;48.564;19.272;2024-03-02T13:01:08;23.52;;;17.80;;
77430;SDS011;66498;48.564;19.272;2024-03-02T13:03:37;21.80;;;17.70;;
77430;SDS011;66498;48.564;19.272;2024-03-02T13:06:04;23.40;;;19.00;;
77430;SDS011;66498;48.564;19.272;2024-03-02T13:08:33;23.67;;;18.58;;
77430;SDS011;66498;48.564;19.272;2024-03-02T13:10:59;26.58;;;20.38;;
77430;SDS011;66498;48.564;19.272;2024-03-02T13:13:24;26.10;;;20.63;;
77430;SDS011;66498;48.564;19.272;2024-03-02T13:15:50;29.27;;;21.48;;
77430;SDS011;66498;48.564;19.272;2024-03-02T13:18:21;26.33;;;20.80;;
77430;SDS011;66498;48.564;19.272;2024-03-02T13:20:46;24.55;;;20.00;;
77430;SDS011;66498;48.564;19.272;2024-03-02T13:23:12;25.30;;;20.60;;
77430;SDS011;66498;48.564;19.272;2024-03-02T13:25:37;25.13;;;20.80;;
77430;SDS011;66498;48.564;19.272;2024-03-02T13:28:03;24.10;;;19.52;;
77430;SDS011;66498;48.564;19.272;2024-03-02T13:30:29;25.02;;;19.23;;
77430;SDS011;66498;48.564;19.272;2024-03-02T13:32:54;23.63;;;18.45;;
77430;SDS011;66498;48.564;19.272;2024-03-02T13:35:20;22.38;;;18.70;;
77430;SDS011;66498;48.564;19.272;2024-03-02T13:37:45;25.33;;;19.55;;
77430;SDS011;66498;48.564;19.272;2024-03-02T13:40:10;23.00;;;18.85;;
77430;SDS011;66498;48.564;19.272;2024-03-02T13:42:42;22.25;;;16.88;;
77430;SDS011;66498;48.564;19.272;2024-03-02T13:45:07;20.73;;;16.23;;
77430;SDS011;66498;48.564;19.272;2024-03-02T13:47:33;19.58;;;14.85;;
77430;SDS011;66498;48.564;19.272;2024-03-02T13:49:58;19.17;;;15.60;;
77430;SDS011;66498;48.564;19.272;2024-03-02T13:52:24;16.67;;;13.23;;
77430;SDS011;66498;48.564;19.272;2024-03-02T13:54:50;15.43;;;12.70;;
77430;SDS011;66498;48.564;19.272;2024-03-02T13:57:17;15.63;;;12.25;;
77430;SDS011;66498;48.564;19.272;2024-03-02T13:59:45;14.23;;;11.05;;
77430;SDS011;66498;48.564;19.272;2024-03-02T14:02:11;15.15;;;12.85;;
77430;SDS011;66498;48.564;19.272;2024-03-02T14:04:37;15.57;;;12.40;;
77430;SDS011;66498;48.564;19.272;2024-03-02T14:07:03;13.32;;;11.02;;
77430;SDS011;66498;48.564;19.272;2024-03-02T14:09:31;12.65;;;9.80;;
77430;SDS011;66498;48.564;19.272;2024-03-02T14:11:57;10.50;;;9.40;;
77430;SDS011;66498;48.564;19.272;2024-03-02T14:14:25;11.05;;;9.90;;
77430;SDS011;66498;48.564;19.272;2024-03-02T14:16:51;12.70;;;8.88;;
77430;SDS011;66498;48.564;19.272;2024-03-02T14:19:17;10.80;;;9.25;;
77430;SDS011;66498;48.564;19.272;2024-03-02T14:21:43;12.05;;;9.63;;
77430;SDS011;66498;48.564;19.272;2024-03-02T14:24:09;10.13;;;8.20;;
77430;SDS011;66498;48.564;19.272;2024-03-02T14:26:35;9.45;;;8.27;;
77430;SDS011;66498;48.564;19.272;2024-03-02T14:29:02;11.32;;;8.82;;
77430;SDS011;66498;48.564;19.272;2024-03-02T14:31:28;10.30;;;8.82;;
77430;SDS011;66498;48.564;19.272;2024-03-02T14:33:54;10.18;;;8.52;;
77430;SDS011;66498;48.564;19.272;2024-03-02T14:36:19;9.88;;;8.40;;
77430;SDS011;66498;48.564;19.272;2024-03-02T14:38:45;10.15;;;8.13;;
77430;SDS011;66498;48.564;19.272;2024-03-02T14:41:11;10.05;;;8.55;;
77430;SDS011;66498;48.564;19.272;2024-03-02T14:43:36;9.85;;;8.23;;
77430;SDS011;66498;48.564;19.272;2024-03-02T14:46:03;11.63;;;8.48;;
77430;SDS011;66498;48.564;19.272;2024-03-02T14:48:28;9.30;;;8.13;;
77430;SDS011;66498;48.564;19.272;2024-03-02T14:50:54;9.07;;;7.72;;
77430;SDS011;66498;48.564;19.272;2024-03-02T14:53:20;10.10;;;8.02;;
77430;SDS011;66498;48.564;19.272;2024-03-02T14:55:45;9.70;;;8.00;;
77430;SDS011;66498;48.564;19.272;2024-03-02T14:58:11;9.82;;;8.18;;